Pagrindinis puslapis
METAR-TAF:

METAR-TAF

Oro uostai :

Base Presidente Eduardo Frei Montalva, Čilė

platuma: 62-11-28S, ilguma: 58-59-11W, Aukštis: 45 m

Dabartinis oras

Ataskaita buvo paskelbta 33 minutes, ne 06:00 UTC
Vėjas 12 kt iš Šiaurės
Temperatūra -1°C
Drėgmė 100%
Slėgis 997 hPa
Matomumas: 1200 m
Apsiniaukę ne aukštis 300 ft
sniegas, rūkana

METAR: SCRM 140600Z 35012KT 1200 -SN BR OVC003 M01/M01 Q0997

Laikas: 03:33 (06:33 UTC)


TAF: trūkstamas

Orai ataskaitas ir orų prognozės (METAR, TAF).

turimą stotys yra geltonos ir raudonos taškus žemėlapyje.

Perkelti pele per norėdami pamatyti stoties vardą.

Tada spustelėkite, norėdami matyti oro stebėjimo ir prognozės.

Norėdami pakeisti žemėlapį: spustelėkite ant žalios mygtukų su juodo kryžiaus žemyn,; žalią mygtuką su brūkšneliu, jei norite nutolinti; arba žalių rodyklių gretimoms žemėlapius.


METAR-TAF: